createdAt,value
2022-11-20T20:22:32.693Z,541.87
2022-11-20T20:24:44.174Z,558.47
2022-11-20T20:26:52.352Z,542.16
2022-11-20T20:29:02.739Z,558.63
2022-11-20T20:31:12.462Z,522.48
2022-11-20T20:33:21.651Z,584.14
2022-11-20T20:35:29.748Z,512.33
2022-11-20T20:47:01.146Z,541.45
2022-11-20T20:49:07.978Z,536.64
2022-11-20T20:51:14.735Z,547.79
2022-11-20T20:53:20.818Z,477.90
2022-11-20T20:55:34.032Z,534.18
2022-11-20T20:57:40.597Z,457.91
2022-11-20T20:59:48.994Z,505.68
2022-11-20T21:01:59.853Z,351.20
2022-11-20T21:04:05.845Z,488.93
2022-11-20T21:06:14.764Z,517.52
2022-11-20T21:08:25.584Z,552.69
2022-11-20T21:10:31.497Z,493.73
2022-11-20T21:12:38.825Z,429.90
2022-11-20T21:14:48.202Z,407.20
2022-11-20T21:16:54.257Z,402.98
2022-11-20T21:19:00.258Z,453.76
2022-11-20T21:21:32.369Z,479.50
2022-11-20T21:23:39.969Z,472.47
2022-11-20T21:25:46.040Z,499.76
2022-11-20T21:27:53.707Z,498.59
2022-11-20T21:30:08.881Z,446.83
2022-11-20T21:32:16.099Z,443.57
2022-11-20T21:34:26.094Z,473.36
2022-11-20T21:36:34.970Z,495.62
2022-11-20T21:38:40.704Z,453.17
2022-11-20T21:40:47.428Z,476.68
2022-11-20T21:42:53.329Z,460.15
2022-11-20T21:45:02.712Z,449.84
2022-11-20T21:47:11.624Z,480.26
2022-11-20T21:49:18.492Z,496.51
2022-11-20T21:51:33.268Z,471.93
2022-11-20T21:53:40.754Z,494.96
2022-11-20T21:55:46.706Z,510.94
2022-11-20T21:57:54.825Z,509.95
2022-11-20T22:00:04.112Z,470.36
2022-11-20T22:02:15.928Z,475.99
2022-11-20T22:04:23.099Z,507.31
2022-11-20T22:06:35.890Z,456.19
2022-11-20T22:08:42.562Z,459.41
2022-11-20T22:11:00.853Z,439.86
2022-11-20T22:13:20.111Z,424.10
2022-11-20T22:15:53.567Z,463.28
2022-11-20T22:18:06.853Z,465.87
2022-11-20T22:20:14.525Z,453.42
2022-11-20T22:22:20.325Z,453.43
2022-11-20T22:24:26.897Z,449.12
2022-11-20T22:26:40.709Z,457.38
2022-11-20T22:28:50.626Z,433.62
2022-11-20T22:31:01.750Z,428.77
2022-11-20T22:33:17.771Z,448.62
2022-11-20T22:35:29.486Z,431.21
2022-11-20T22:37:35.299Z,418.31
2022-11-20T22:39:42.024Z,407.66
2022-11-20T22:41:47.839Z,417.69
2022-11-20T22:43:58.318Z,424.55
2022-11-20T22:46:14.737Z,423.65
2022-11-20T22:48:20.480Z,392.54
2022-11-20T22:50:26.278Z,385.19
2022-11-20T22:52:32.982Z,400.43
2022-11-20T22:54:38.908Z,397.55
2022-11-20T22:56:45.815Z,399.74
2022-11-20T22:58:55.519Z,411.03
2022-11-20T23:01:17.275Z,391.07
2022-11-20T23:03:23.173Z,408.86
2022-11-20T23:05:29.899Z,401.51
2022-11-20T23:07:40.726Z,423.84
2022-11-20T23:09:50.153Z,419.36
2022-11-20T23:11:56.820Z,416.47
2022-11-20T23:14:06.610Z,408.32
2022-11-20T23:16:18.149Z,406.28
2022-11-20T23:18:32.890Z,407.04
2022-11-20T23:20:40.677Z,399.79
2022-11-20T23:22:46.521Z,409.35
2022-11-20T23:24:53.211Z,392.57
2022-11-20T23:26:58.940Z,386.25
2022-11-20T23:29:05.915Z,377.74
2022-11-20T23:31:17.544Z,382.87
2022-11-20T23:33:23.255Z,368.90
2022-11-20T23:35:28.962Z,379.21
2022-11-20T23:37:36.134Z,403.13
2022-11-20T23:39:41.889Z,414.55
2022-11-20T23:41:47.662Z,419.39
2022-11-20T23:43:55.057Z,420.81
2022-11-20T23:46:06.230Z,433.48
2022-11-20T23:48:15.802Z,399.94
2022-11-20T23:50:22.283Z,372.07
2022-11-20T23:52:28.005Z,387.18
2022-11-20T23:54:33.667Z,371.01
2022-11-20T23:56:40.202Z,357.21
2022-11-20T23:58:46.758Z,369.40
